createdAt,value
2023-02-09T00:00:11.903Z,-0.89
2023-02-09T00:03:01.024Z,-0.90
2023-02-09T00:05:46.428Z,-0.88
2023-02-09T00:08:32.661Z,-0.88
2023-02-09T00:11:46.682Z,-0.87
2023-02-09T00:14:34.369Z,-0.90
2023-02-09T00:17:19.709Z,-0.88
2023-02-09T00:20:06.681Z,-0.92
2023-02-09T00:22:52.022Z,-0.95
2023-02-09T00:25:40.265Z,-1.09
2023-02-09T00:28:25.947Z,-1.14
2023-02-09T00:31:12.882Z,-1.17
2023-02-09T00:33:59.183Z,-1.13
2023-02-09T00:36:45.414Z,-1.16
2023-02-09T00:39:30.589Z,-1.23
2023-02-09T00:42:16.170Z,-1.18
2023-02-09T00:45:01.349Z,-1.18
2023-02-09T00:47:46.937Z,-1.20
2023-02-09T00:50:32.244Z,-1.22
2023-02-09T00:53:18.145Z,-1.19
2023-02-09T00:56:03.710Z,-1.20
2023-02-09T00:58:48.755Z,-1.22
2023-02-09T01:01:35.515Z,-1.25
2023-02-09T01:04:20.641Z,-1.24
2023-02-09T01:07:06.190Z,-1.26
2023-02-09T01:09:51.521Z,-1.32
2023-02-09T01:12:39.860Z,-1.35
2023-02-09T01:15:25.905Z,-1.29
2023-02-09T01:18:11.317Z,-1.24
2023-02-09T01:20:56.433Z,-1.24
2023-02-09T01:23:42.050Z,-1.27
2023-02-09T01:26:27.346Z,-1.22
2023-02-09T01:29:14.889Z,-1.18
2023-02-09T01:32:00.367Z,-1.21
2023-02-09T01:34:45.622Z,-1.24
2023-02-09T01:37:34.484Z,-1.24
2023-02-09T01:40:19.866Z,-1.25
2023-02-09T01:43:05.001Z,-1.25
2023-02-09T01:45:54.596Z,-1.28
2023-02-09T01:48:40.112Z,-1.28
2023-02-09T01:51:26.892Z,-1.27
2023-02-09T01:54:16.197Z,-1.27
2023-02-09T01:57:08.109Z,-1.29
2023-02-09T02:00:01.468Z,-1.31
2023-02-09T02:03:00.836Z,-1.33
2023-02-09T02:05:50.608Z,-1.35
2023-02-09T02:08:41.396Z,-1.43
2023-02-09T02:11:29.793Z,-1.47
2023-02-09T02:14:34.032Z,-1.42
2023-02-09T02:17:57.257Z,-1.45
2023-02-09T02:20:56.215Z,-1.51
2023-02-09T02:24:27.885Z,-1.51
2023-02-09T02:28:07.592Z,-1.47
2023-02-09T02:31:18.545Z,-1.49
2023-02-09T02:34:12.357Z,-1.54
2023-02-09T02:37:38.523Z,-1.55
2023-02-09T02:40:37.541Z,-1.54
2023-02-09T02:43:51.056Z,-1.50
2023-02-09T02:46:47.216Z,-1.54
2023-02-09T02:49:55.396Z,-1.58
2023-02-09T02:52:45.888Z,-1.55
2023-02-09T02:55:33.734Z,-1.56
2023-02-09T02:58:22.412Z,-1.56
2023-02-09T03:01:11.088Z,-1.59
2023-02-09T03:03:58.170Z,-1.59
2023-02-09T03:06:43.366Z,-1.60
2023-02-09T03:09:28.444Z,-1.63
2023-02-09T03:12:34.259Z,-1.66
2023-02-09T03:15:35.023Z,-1.63
2023-02-09T03:18:28.876Z,-1.62
2023-02-09T03:21:40.263Z,-1.60
2023-02-09T03:24:55.302Z,-1.69
2023-02-09T03:27:53.777Z,-1.70
2023-02-09T03:30:41.990Z,-1.72
2023-02-09T03:33:29.695Z,-1.73
2023-02-09T03:36:19.385Z,-1.73
2023-02-09T03:39:05.331Z,-1.71
2023-02-09T03:41:50.911Z,-1.71
2023-02-09T03:44:35.993Z,-1.70
2023-02-09T03:47:21.273Z,-1.75
2023-02-09T03:50:07.428Z,-1.75
2023-02-09T03:52:53.029Z,-1.73
2023-02-09T03:55:38.511Z,-1.76
2023-02-09T03:58:24.023Z,-1.81
2023-02-09T04:01:11.024Z,-1.82
2023-02-09T04:03:55.954Z,-1.78
2023-02-09T04:06:41.428Z,-1.73
2023-02-09T04:09:26.918Z,-1.69
2023-02-09T04:12:12.394Z,-1.71
2023-02-09T04:14:57.620Z,-1.73
2023-02-09T04:17:42.497Z,-1.73
2023-02-09T04:20:27.921Z,-1.74
2023-02-09T04:23:13.499Z,-1.79
2023-02-09T04:25:58.848Z,-1.76
2023-02-09T04:28:44.307Z,-1.73
2023-02-09T04:31:30.661Z,-1.75
2023-02-09T04:34:16.366Z,-1.75
2023-02-09T04:37:01.665Z,-1.77
2023-02-09T04:39:46.943Z,-1.78
2023-02-09T04:42:32.326Z,-1.79
2023-02-09T04:45:17.580Z,-1.77
2023-02-09T04:48:02.876Z,-1.82
2023-02-09T04:50:48.651Z,-1.85
2023-02-09T04:53:34.064Z,-1.92
2023-02-09T04:56:19.230Z,-1.92
2023-02-09T04:59:22.928Z,-1.93
2023-02-09T05:02:08.322Z,-1.95
2023-02-09T05:04:53.354Z,-2.00
2023-02-09T05:07:38.836Z,-2.03
2023-02-09T05:10:24.288Z,-2.05
2023-02-09T05:13:09.463Z,-2.04
2023-02-09T05:15:55.293Z,-2.08
2023-02-09T05:18:40.648Z,-2.07
2023-02-09T05:21:25.931Z,-2.08
2023-02-09T05:24:11.087Z,-2.12
2023-02-09T05:26:56.334Z,-2.12
2023-02-09T05:29:42.069Z,-2.10
2023-02-09T05:32:27.094Z,-2.10
2023-02-09T05:35:12.628Z,-2.13
2023-02-09T05:37:57.923Z,-2.13
2023-02-09T05:40:45.125Z,-2.14
2023-02-09T05:43:30.631Z,-2.17
2023-02-09T05:46:16.028Z,-2.15
2023-02-09T05:49:01.476Z,-2.12
2023-02-09T05:51:46.702Z,-2.14
2023-02-09T05:54:31.827Z,-2.15
2023-02-09T05:57:17.919Z,-2.13
2023-02-09T06:00:05.779Z,-2.13
2023-02-09T06:02:57.315Z,-2.15
2023-02-09T06:05:45.066Z,-2.19
2023-02-09T06:08:30.383Z,-2.19
2023-02-09T06:11:15.913Z,-2.19
2023-02-09T06:14:01.299Z,-2.19
2023-02-09T06:16:46.435Z,-2.20
2023-02-09T06:19:32.013Z,-2.19
2023-02-09T06:22:17.028Z,-2.20
2023-02-09T06:25:02.245Z,-2.19
2023-02-09T06:27:47.496Z,-2.18
2023-02-09T06:30:33.003Z,-2.21
2023-02-09T06:33:19.691Z,-2.22
2023-02-09T06:36:06.369Z,-2.26
2023-02-09T06:38:51.435Z,-2.26
2023-02-09T06:41:36.694Z,-2.31
2023-02-09T06:44:30.840Z,-2.26
2023-02-09T06:47:19.912Z,-2.26
2023-02-09T06:50:05.597Z,-2.22
2023-02-09T06:52:51.221Z,-2.20
2023-02-09T06:55:36.550Z,-2.16
2023-02-09T06:58:21.518Z,-2.13
2023-02-09T07:01:18.127Z,-2.11
2023-02-09T07:04:03.510Z,-2.10
2023-02-09T07:06:48.935Z,-2.07
2023-02-09T07:09:34.365Z,-2.00
2023-02-09T07:12:19.791Z,-1.97
2023-02-09T07:15:05.930Z,-1.90
2023-02-09T07:17:51.386Z,-1.84
2023-02-09T07:20:36.962Z,-1.80
2023-02-09T07:23:22.395Z,-1.75
2023-02-09T07:26:13.337Z,-1.79
2023-02-09T07:28:58.795Z,-0.87
2023-02-09T07:31:44.187Z,-0.47
2023-02-09T07:34:29.416Z,-0.55
2023-02-09T07:37:14.871Z,-0.80
2023-02-09T07:40:00.313Z,-0.98
2023-02-09T07:42:45.656Z,-1.15
2023-02-09T07:45:33.448Z,-1.25
2023-02-09T07:48:18.972Z,-1.37
2023-02-09T07:51:05.272Z,-1.41
2023-02-09T07:53:51.678Z,-1.37
2023-02-09T07:56:37.166Z,-1.32
2023-02-09T07:59:22.384Z,-1.31
2023-02-09T08:02:18.548Z,-1.28
2023-02-09T08:05:07.900Z,-1.22
2023-02-09T08:07:53.378Z,-1.15
2023-02-09T08:10:40.318Z,-1.07
2023-02-09T08:13:29.023Z,-0.99
2023-02-09T08:16:16.608Z,-0.90
2023-02-09T08:19:25.124Z,-0.84
2023-02-09T08:22:10.348Z,-0.84
2023-02-09T08:24:56.151Z,-0.77
2023-02-09T08:27:43.207Z,-0.69
2023-02-09T08:30:28.494Z,-0.61
2023-02-09T08:33:13.671Z,-0.54
2023-02-09T08:35:59.533Z,-0.48
2023-02-09T08:38:45.584Z,-0.40
2023-02-09T08:41:30.750Z,-0.35
2023-02-09T08:44:15.998Z,-0.23
2023-02-09T08:47:01.544Z,-0.16
2023-02-09T08:49:47.123Z,-0.13
2023-02-09T08:52:32.445Z,-0.04
2023-02-09T08:55:17.854Z,0.07
2023-02-09T08:58:03.038Z,0.23
2023-02-09T09:00:48.448Z,0.31
2023-02-09T09:03:34.009Z,0.40
2023-02-09T09:06:19.709Z,0.48
2023-02-09T09:09:05.167Z,0.60
2023-02-09T09:11:50.503Z,0.70
2023-02-09T09:14:36.379Z,0.79
2023-02-09T09:17:22.398Z,0.91
2023-02-09T09:20:08.222Z,0.99
2023-02-09T09:22:53.372Z,1.09
2023-02-09T09:25:39.497Z,1.18
2023-02-09T09:28:24.889Z,1.58
2023-02-09T09:31:12.841Z,2.17
2023-02-09T09:33:58.361Z,2.48
2023-02-09T09:36:43.777Z,2.76
2023-02-09T09:39:29.346Z,2.79
2023-02-09T09:42:27.650Z,2.56
2023-02-09T09:45:17.718Z,2.48
2023-02-09T09:48:03.329Z,2.53
2023-02-09T09:50:52.346Z,2.51
2023-02-09T09:53:39.304Z,2.44
2023-02-09T09:56:26.882Z,2.37
2023-02-09T09:59:19.344Z,2.36
2023-02-09T10:02:23.430Z,2.44
2023-02-09T10:05:23.748Z,2.53
2023-02-09T10:08:18.637Z,2.54
2023-02-09T10:11:09.993Z,2.61
2023-02-09T10:13:57.671Z,2.66
2023-02-09T10:16:44.632Z,2.70
2023-02-09T10:19:30.342Z,2.82
2023-02-09T10:22:20.683Z,2.88
2023-02-09T10:25:34.553Z,2.96
2023-02-09T10:28:26.182Z,3.03
2023-02-09T10:31:31.645Z,3.05
2023-02-09T10:34:20.161Z,3.06
2023-02-09T10:37:37.455Z,3.17
2023-02-09T10:40:27.870Z,3.30
2023-02-09T10:43:33.498Z,3.49
2023-02-09T10:46:20.839Z,3.67
2023-02-09T10:49:27.199Z,3.69
2023-02-09T10:52:12.175Z,3.82
2023-02-09T10:55:02.436Z,3.79
2023-02-09T10:57:48.635Z,3.64
2023-02-09T11:00:42.354Z,3.69
2023-02-09T11:03:27.801Z,3.71
2023-02-09T11:06:19.291Z,3.69
2023-02-09T11:09:15.118Z,3.68
2023-02-09T11:12:01.051Z,3.73
2023-02-09T11:14:46.434Z,3.80
2023-02-09T11:17:41.538Z,3.97
2023-02-09T11:20:35.740Z,4.18
2023-02-09T11:23:56.688Z,4.21
2023-02-09T11:26:53.699Z,4.18
2023-02-09T11:29:56.201Z,4.12
2023-02-09T11:33:26.006Z,4.01
2023-02-09T11:36:22.357Z,3.98
2023-02-09T11:39:18.971Z,3.98
2023-02-09T11:42:32.947Z,4.03
2023-02-09T11:46:02.951Z,4.30
2023-02-09T11:49:00.333Z,4.42
2023-02-09T11:51:47.728Z,4.51
2023-02-09T11:54:36.569Z,4.56
2023-02-09T11:57:39.702Z,4.62
2023-02-09T12:00:30.395Z,4.71
2023-02-09T12:03:15.694Z,4.82
2023-02-09T12:06:02.234Z,4.89
2023-02-09T12:09:01.937Z,4.92
2023-02-09T12:12:04.615Z,4.87
2023-02-09T12:14:56.620Z,4.81
2023-02-09T12:17:53.938Z,4.79
2023-02-09T12:21:09.573Z,4.75
2023-02-09T12:23:54.781Z,4.76
2023-02-09T12:26:44.305Z,4.83
2023-02-09T12:29:32.684Z,4.84
2023-02-09T12:32:42.586Z,4.74
2023-02-09T12:35:38.740Z,4.69
2023-02-09T12:38:24.332Z,4.66
2023-02-09T12:41:12.668Z,4.71
2023-02-09T12:44:09.909Z,4.77
2023-02-09T12:46:57.805Z,4.88
2023-02-09T12:49:43.629Z,4.95
2023-02-09T12:52:28.924Z,4.97
2023-02-09T12:55:22.036Z,5.03
2023-02-09T12:58:54.170Z,5.02
2023-02-09T13:02:07.507Z,5.11
2023-02-09T13:05:00.098Z,5.18
2023-02-09T13:08:01.710Z,5.32
2023-02-09T13:10:59.023Z,5.34
2023-02-09T13:14:13.217Z,5.34
2023-02-09T13:17:24.681Z,5.43
2023-02-09T13:20:55.623Z,5.51
2023-02-09T13:23:44.171Z,5.59
2023-02-09T13:26:33.799Z,5.56
2023-02-09T13:29:22.100Z,5.49
2023-02-09T13:32:16.859Z,5.38
2023-02-09T13:35:11.553Z,5.33
2023-02-09T13:38:07.820Z,5.24
2023-02-09T13:40:54.156Z,5.24
2023-02-09T13:43:40.338Z,5.17
2023-02-09T13:46:34.368Z,5.05
2023-02-09T13:49:21.888Z,5.03
2023-02-09T13:52:26.747Z,4.97
2023-02-09T13:55:17.418Z,4.92
2023-02-09T13:58:05.202Z,4.91
2023-02-09T14:01:04.506Z,4.87
2023-02-09T14:03:58.848Z,4.84
2023-02-09T14:07:01.422Z,4.80
2023-02-09T14:09:51.456Z,4.73
2023-02-09T14:12:55.850Z,4.66
2023-02-09T14:16:04.241Z,4.63
2023-02-09T14:18:55.220Z,4.66
2023-02-09T14:21:44.334Z,4.67
2023-02-09T14:24:43.961Z,4.66
2023-02-09T14:27:32.988Z,4.64
2023-02-09T14:30:24.523Z,4.60
2023-02-09T14:33:24.688Z,4.55
2023-02-09T14:36:21.849Z,4.48
2023-02-09T14:39:12.914Z,4.42
2023-02-09T14:42:10.677Z,4.37
2023-02-09T14:45:01.838Z,4.35
2023-02-09T14:47:48.496Z,4.31
2023-02-09T14:50:36.745Z,4.27
2023-02-09T14:53:24.425Z,4.19
2023-02-09T14:56:24.627Z,4.14
2023-02-09T14:59:16.454Z,4.10
2023-02-09T15:02:01.830Z,4.03
2023-02-09T15:04:47.183Z,4.00
2023-02-09T15:07:38.678Z,3.99
2023-02-09T15:10:28.882Z,3.95
2023-02-09T15:13:15.386Z,3.84
2023-02-09T15:16:00.452Z,3.76
2023-02-09T15:18:46.013Z,3.69
2023-02-09T15:21:31.845Z,3.63
2023-02-09T15:24:16.979Z,3.58
2023-02-09T15:27:02.681Z,3.54
2023-02-09T15:29:48.592Z,3.52
2023-02-09T15:32:33.948Z,3.51
2023-02-09T15:35:22.316Z,3.47
2023-02-09T15:38:13.589Z,3.43
2023-02-09T15:41:17.714Z,3.38
2023-02-09T15:44:38.741Z,3.33
2023-02-09T15:47:42.711Z,3.30
2023-02-09T15:50:29.402Z,3.27
2023-02-09T15:53:18.903Z,3.23
2023-02-09T15:56:06.500Z,3.20
2023-02-09T15:58:52.130Z,3.16
2023-02-09T16:01:37.417Z,3.11
2023-02-09T16:04:22.882Z,3.09
2023-02-09T16:07:13.555Z,3.08
2023-02-09T16:09:59.187Z,3.02
2023-02-09T16:12:44.503Z,2.98
2023-02-09T16:15:29.832Z,3.01
2023-02-09T16:18:15.140Z,2.98
2023-02-09T16:21:00.700Z,2.95
2023-02-09T16:23:47.435Z,2.93
2023-02-09T16:26:34.130Z,2.91
2023-02-09T16:29:19.695Z,2.88
2023-02-09T16:32:13.693Z,2.90
2023-02-09T16:35:14.574Z,2.86
2023-02-09T16:38:01.696Z,2.84
2023-02-09T16:40:47.251Z,2.85
2023-02-09T16:43:32.367Z,2.81
2023-02-09T16:46:17.800Z,2.79
2023-02-09T16:49:03.156Z,2.77
2023-02-09T16:51:48.310Z,2.76
2023-02-09T16:54:42.391Z,2.75
2023-02-09T16:57:28.806Z,2.74
2023-02-09T17:00:14.634Z,2.76
2023-02-09T17:03:16.350Z,2.75
2023-02-09T17:06:02.472Z,2.76
2023-02-09T17:08:47.902Z,2.75
2023-02-09T17:11:33.345Z,2.76
2023-02-09T17:14:18.539Z,2.77
2023-02-09T17:17:04.997Z,2.79
2023-02-09T17:19:52.029Z,2.78
2023-02-09T17:22:37.402Z,2.76
2023-02-09T17:25:24.764Z,2.74
2023-02-09T17:28:11.040Z,2.73
2023-02-09T17:31:01.924Z,2.66
2023-02-09T17:33:50.221Z,2.64
2023-02-09T17:36:35.985Z,2.59
2023-02-09T17:39:21.558Z,2.56
2023-02-09T17:42:06.916Z,2.57
2023-02-09T17:44:52.299Z,2.53
2023-02-09T17:47:39.367Z,2.48
2023-02-09T17:50:25.713Z,2.45
2023-02-09T17:53:17.920Z,2.41
2023-02-09T17:56:03.753Z,2.37
2023-02-09T17:58:49.108Z,2.33
2023-02-09T18:01:46.445Z,2.35
2023-02-09T18:04:33.305Z,2.32
2023-02-09T18:07:20.825Z,2.32
2023-02-09T18:10:06.503Z,2.27
2023-02-09T18:12:52.018Z,2.25
2023-02-09T18:15:37.718Z,2.24
2023-02-09T18:18:24.416Z,2.23
2023-02-09T18:21:14.415Z,2.21
2023-02-09T18:23:59.782Z,2.16
2023-02-09T18:26:47.733Z,2.16
2023-02-09T18:29:33.072Z,2.14
2023-02-09T18:32:18.608Z,2.15
2023-02-09T18:35:04.623Z,2.15
2023-02-09T18:37:50.154Z,2.13
2023-02-09T18:40:36.715Z,2.06
2023-02-09T18:43:22.094Z,2.04
2023-02-09T18:46:07.770Z,2.02
2023-02-09T18:48:54.210Z,2.02
2023-02-09T18:51:39.310Z,1.99
2023-02-09T18:54:24.566Z,2.02
2023-02-09T18:57:09.803Z,1.99
2023-02-09T18:59:54.984Z,1.96
2023-02-09T19:02:41.256Z,1.91
2023-02-09T19:05:29.726Z,1.88
2023-02-09T19:08:15.357Z,1.88
2023-02-09T19:11:00.360Z,1.86
2023-02-09T19:14:05.901Z,1.86
2023-02-09T19:16:51.166Z,1.82
2023-02-09T19:19:38.626Z,1.80
2023-02-09T19:22:24.898Z,1.78
2023-02-09T19:25:10.013Z,1.75
2023-02-09T19:27:55.733Z,1.72
2023-02-09T19:30:41.747Z,1.69
2023-02-09T19:33:27.055Z,1.68
2023-02-09T19:36:12.465Z,1.66
2023-02-09T19:38:57.680Z,1.65
2023-02-09T19:41:44.432Z,1.64
2023-02-09T19:44:29.901Z,1.61
2023-02-09T19:47:15.792Z,1.56
2023-02-09T19:50:01.288Z,1.55
2023-02-09T19:52:48.950Z,1.53
2023-02-09T19:55:35.086Z,1.51
2023-02-09T19:58:23.772Z,1.48
2023-02-09T20:01:09.885Z,1.47
2023-02-09T20:03:56.062Z,1.46
2023-02-09T20:06:41.474Z,1.49
2023-02-09T20:09:28.909Z,1.53
2023-02-09T20:12:14.373Z,1.52
2023-02-09T20:14:59.204Z,1.49
2023-02-09T20:20:30.935Z,2.14
2023-02-09T20:23:16.532Z,2.37
2023-02-09T20:26:08.335Z,2.23
2023-02-09T20:28:53.789Z,2.06
2023-02-09T20:31:41.594Z,1.94
2023-02-09T20:34:27.033Z,1.83
2023-02-09T20:37:12.227Z,1.74
2023-02-09T20:39:57.128Z,1.69
2023-02-09T20:43:00.706Z,1.66
2023-02-09T20:46:04.470Z,1.60
2023-02-09T20:48:49.451Z,1.57
2023-02-09T20:51:34.879Z,1.56
2023-02-09T20:54:20.047Z,1.54
2023-02-09T20:57:05.362Z,1.52
2023-02-09T20:59:50.631Z,1.48
2023-02-09T21:02:37.480Z,1.44
2023-02-09T21:05:22.683Z,1.40
2023-02-09T21:08:09.137Z,1.40
2023-02-09T21:10:56.244Z,1.35
2023-02-09T21:13:42.124Z,1.33
2023-02-09T21:16:27.614Z,1.32
2023-02-09T21:19:13.114Z,1.33
2023-02-09T21:21:58.422Z,1.33
2023-02-09T21:24:44.047Z,1.31
2023-02-09T21:27:29.621Z,1.30
2023-02-09T21:30:16.529Z,1.28
2023-02-09T21:33:01.954Z,1.29
2023-02-09T21:35:47.492Z,1.27
2023-02-09T21:38:34.172Z,1.27
2023-02-09T21:41:41.370Z,1.27
2023-02-09T21:44:26.515Z,1.25
2023-02-09T21:47:12.125Z,1.27
2023-02-09T21:49:58.091Z,1.33
2023-02-09T21:52:43.671Z,1.37
2023-02-09T21:55:30.747Z,1.42
2023-02-09T21:58:16.092Z,1.51
2023-02-09T22:01:01.720Z,1.58
2023-02-09T22:03:52.589Z,1.64
2023-02-09T22:06:37.691Z,1.68
2023-02-09T22:09:24.656Z,1.72
2023-02-09T22:12:10.072Z,1.71
2023-02-09T22:14:55.258Z,1.69
2023-02-09T22:17:40.895Z,1.70
2023-02-09T22:20:25.940Z,1.70
2023-02-09T22:23:11.561Z,1.74
2023-02-09T22:26:01.226Z,1.81
2023-02-09T22:28:49.345Z,1.86
2023-02-09T22:31:34.867Z,1.87
2023-02-09T22:34:20.448Z,1.89
2023-02-09T22:37:05.851Z,1.93
2023-02-09T22:39:51.344Z,1.98
2023-02-09T22:42:36.797Z,2.02
2023-02-09T22:45:22.079Z,2.08
2023-02-09T22:48:09.255Z,2.13
2023-02-09T22:50:54.706Z,2.15
2023-02-09T22:53:40.168Z,2.15
2023-02-09T22:56:26.814Z,2.23
2023-02-09T22:59:13.869Z,2.29
2023-02-09T23:01:59.282Z,2.31
2023-02-09T23:04:44.627Z,2.37
2023-02-09T23:07:30.750Z,2.45
2023-02-09T23:10:17.071Z,2.48
2023-02-09T23:13:02.095Z,2.48
2023-02-09T23:15:47.824Z,2.48
2023-02-09T23:18:33.277Z,2.47
2023-02-09T23:21:20.969Z,2.48
2023-02-09T23:24:06.986Z,2.53
2023-02-09T23:26:52.465Z,2.56
2023-02-09T23:29:37.679Z,2.59
2023-02-09T23:32:23.061Z,2.60
2023-02-09T23:35:08.426Z,2.48
2023-02-09T23:37:53.830Z,2.44
2023-02-09T23:40:40.291Z,2.40
2023-02-09T23:43:26.007Z,2.40
2023-02-09T23:46:14.141Z,2.40
2023-02-09T23:48:59.331Z,2.39
2023-02-09T23:51:46.445Z,2.41
2023-02-09T23:54:31.890Z,2.47
2023-02-09T23:57:17.838Z,2.53
